Time;durP1;ratioP1;P1;durP2;ratioP2;P2;SDS_P1;SDS_P2;PMS_P1;PMS_P2;Temp;Humidity;BMP_temperature;BMP_pressure;BME280_temperature;BME280_humidity;BME280_pressure;Samples;Min_cycle;Max_cycle;Signal;HPM_P1;HPM_P2
2024/01/28 00:01:08;;;;;;;25.45;14.05;;;;;;;-1.73;100.00;103152.72;5089451;28;20512;-49
2024/01/28 00:03:36;;;;;;;24.90;12.98;;;;;;;-1.74;100.00;103148.38;5089723;28;20396;-50
2024/01/28 00:06:05;;;;;;;22.38;12.55;;;;;;;-1.78;100.00;103154.31;5087611;28;20044;-47
2024/01/28 00:08:33;;;;;;;20.00;12.02;;;;;;;-1.79;100.00;103144.81;5086731;28;20058;-45
2024/01/28 00:11:01;;;;;;;25.20;11.85;;;;;;;-1.83;100.00;103146.44;5085883;28;20048;-45
2024/01/28 00:13:34;;;;;;;25.20;11.48;;;;;;;-1.84;100.00;103146.41;5086060;28;20053;-47
2024/01/28 00:16:02;;;;;;;27.20;11.60;;;;;;;-1.86;100.00;103138.63;5085354;28;20058;-45
2024/01/28 00:18:35;;;;;;;19.38;10.57;;;;;;;-1.88;100.00;103136.03;5089564;28;20052;-47
2024/01/28 00:21:04;;;;;;;19.23;10.55;;;;;;;-1.91;100.00;103130.81;5089074;28;20050;-45
2024/01/28 00:23:32;;;;;;;19.80;10.55;;;;;;;-1.91;100.00;103129.91;5089509;28;20127;-46
2024/01/28 00:26:03;;;;;;;21.45;10.93;;;;;;;-1.89;100.00;103123.97;5089524;28;20101;-46
2024/01/28 00:28:31;;;;;;;19.23;9.98;;;;;;;-1.92;100.00;103123.91;5086109;28;20060;-47
2024/01/28 00:31:02;;;;;;;20.10;10.00;;;;;;;-1.92;100.00;103126.47;5084685;28;20050;-46
2024/01/28 00:33:31;;;;;;;20.08;9.60;;;;;;;-1.92;100.00;103123.03;5087965;28;20044;-45
2024/01/28 00:36:03;;;;;;;19.05;9.85;;;;;;;-1.94;100.00;103124.69;5089531;28;20529;-46
2024/01/28 00:38:32;;;;;;;19.75;9.95;;;;;;;-1.95;100.00;103120.38;5086564;28;20109;-45
2024/01/28 00:41:00;;;;;;;18.63;9.18;;;;;;;-1.98;100.00;103117.72;5086129;28;20040;-47
2024/01/28 00:43:29;;;;;;;16.38;9.50;;;;;;;-2.02;100.00;103103.88;5088798;28;20059;-45
2024/01/28 00:45:57;;;;;;;17.80;9.55;;;;;;;-2.02;100.00;103103.00;5088982;28;20055;-45
2024/01/28 00:48:25;;;;;;;16.05;9.43;;;;;;;-2.06;100.00;103105.53;5088417;28;20048;-45
2024/01/28 00:50:53;;;;;;;14.70;8.43;;;;;;;-2.07;100.00;103108.06;5088191;28;20071;-46
2024/01/28 00:53:23;;;;;;;22.05;9.48;;;;;;;-2.08;100.00;103116.63;5084228;28;20074;-51
2024/01/28 00:55:51;;;;;;;21.55;9.77;;;;;;;-2.11;100.00;103114.84;5073935;28;20040;-50
2024/01/28 00:58:22;;;;;;;19.52;10.35;;;;;;;-2.10;100.00;103114.03;5072120;28;20099;-50
2024/01/28 01:00:50;;;;;;;16.58;8.40;;;;;;;-2.11;100.00;103106.25;5070508;28;20572;-50
2024/01/28 01:03:19;;;;;;;18.23;8.98;;;;;;;-2.11;100.00;103108.84;5073084;28;20041;-49
2024/01/28 01:05:47;;;;;;;19.60;8.82;;;;;;;-2.15;100.00;103105.31;5074560;28;20110;-52
2024/01/28 01:08:16;;;;;;;16.50;8.85;;;;;;;-2.14;100.00;103106.16;5071742;28;20094;-49
2024/01/28 01:10:45;;;;;;;19.13;8.18;;;;;;;-2.15;100.00;103113.03;5072407;28;20573;-51
2024/01/28 01:13:13;;;;;;;15.93;9.38;;;;;;;-2.17;100.00;103116.41;5073563;28;20041;-51
2024/01/28 01:15:41;;;;;;;19.33;9.82;;;;;;;-2.19;100.00;103116.38;5071199;28;20055;-50
2024/01/28 01:18:09;;;;;;;15.73;8.38;;;;;;;-2.20;100.00;103109.47;5070529;28;20056;-49
2024/01/28 01:20:38;;;;;;;15.25;8.02;;;;;;;-2.22;100.00;103109.44;5071191;28;20131;-51
2024/01/28 01:23:06;;;;;;;15.23;8.40;;;;;;;-2.23;100.00;103105.09;5072422;28;20429;-50
2024/01/28 01:25:34;;;;;;;20.90;8.90;;;;;;;-2.24;100.00;103113.66;5074858;28;20056;-50
2024/01/28 01:28:04;;;;;;;17.25;8.40;;;;;;;-2.24;100.00;103110.22;5074609;28;20493;-51
2024/01/28 01:30:32;;;;;;;16.33;8.05;;;;;;;-2.26;100.00;103111.91;5074187;28;20052;-50
2024/01/28 01:33:03;;;;;;;17.33;8.38;;;;;;;-2.26;100.00;103104.19;5074770;28;20064;-52
2024/01/28 01:35:31;;;;;;;15.88;7.88;;;;;;;-2.28;100.00;103103.25;5074621;28;20040;-49
2024/01/28 01:37:59;;;;;;;13.90;8.07;;;;;;;-2.31;100.00;103093.72;5073361;28;20479;-50
2024/01/28 01:40:27;;;;;;;15.30;8.43;;;;;;;-2.32;100.00;103094.56;5071331;28;20098;-50
2024/01/28 01:42:55;;;;;;;15.98;8.57;;;;;;;-2.32;100.00;103098.84;5072184;28;20048;-50
2024/01/28 01:45:25;;;;;;;17.05;8.27;;;;;;;-2.33;100.00;103102.25;5069560;28;20086;-51
2024/01/28 01:47:53;;;;;;;17.92;8.60;;;;;;;-2.34;100.00;103109.13;5070921;28;20036;-50
2024/01/28 01:50:22;;;;;;;17.38;8.45;;;;;;;-2.35;100.00;103102.22;5072172;28;20053;-52
2024/01/28 01:52:50;;;;;;;14.98;8.07;;;;;;;-2.37;100.00;103091.03;5074292;28;20040;-52
2024/01/28 01:55:18;;;;;;;19.90;9.32;;;;;;;-2.36;100.00;103099.63;5072818;28;20043;-49
2024/01/28 01:57:47;;;;;;;15.93;8.93;;;;;;;-2.36;100.00;103095.31;5070895;28;20045;-49
2024/01/28 02:00:16;;;;;;;16.25;8.30;;;;;;;-2.36;100.00;103090.16;5068750;28;20126;-50
2024/01/28 02:02:47;;;;;;;16.40;8.52;;;;;;;-2.38;100.00;103094.44;5070553;28;20549;-52
2024/01/28 02:05:16;;;;;;;16.02;8.80;;;;;;;-2.40;100.00;103093.50;5067864;28;20109;-49
2024/01/28 02:07:45;;;;;;;16.92;8.15;;;;;;;-2.42;100.00;103083.16;5070859;28;20437;-51
2024/01/28 02:10:13;;;;;;;15.85;8.00;;;;;;;-2.43;100.00;103085.69;5070276;28;20053;-51
2024/01/28 02:12:43;;;;;;;15.63;9.05;;;;;;;-2.45;100.00;103092.53;5073605;28;20080;-52
2024/01/28 02:15:12;;;;;;;17.98;7.85;;;;;;;-2.45;100.00;103093.41;5073848;28;20084;-53
2024/01/28 02:17:41;;;;;;;17.35;8.02;;;;;;;-2.46;100.00;103089.06;5073762;28;20422;-53
2024/01/28 02:20:12;;;;;;;13.55;7.38;;;;;;;-2.47;100.00;103099.34;5073184;28;20050;-53
2024/01/28 02:22:40;;;;;;;20.85;7.38;;;;;;;-2.48;100.00;103089.84;5073250;28;20055;-52
2024/01/28 02:25:10;;;;;;;18.25;7.60;;;;;;;-2.48;100.00;103097.59;5069391;28;20044;-51
2024/01/28 02:27:40;;;;;;;15.00;7.22;;;;;;;-2.49;100.00;103090.72;5070458;28;20098;-51
2024/01/28 02:30:10;;;;;;;17.33;8.27;;;;;;;-2.50;100.00;103082.09;5069172;28;20123;-45
2024/01/28 02:32:38;;;;;;;14.68;7.30;;;;;;;-2.50;100.00;103074.38;5070378;28;20045;-47
2024/01/28 02:35:07;;;;;;;15.25;8.50;;;;;;;-2.52;100.00;103082.88;5072500;28;20053;-49
2024/01/28 02:37:35;;;;;;;15.88;7.95;;;;;;;-2.53;100.00;103081.16;5070118;28;20126;-46
2024/01/28 02:40:04;;;;;;;17.10;8.43;;;;;;;-2.54;100.00;103075.13;5070612;28;20056;-46
2024/01/28 02:42:33;;;;;;;13.27;7.22;;;;;;;-2.56;100.00;103085.41;5072769;28;20048;-46
2024/01/28 02:45:02;;;;;;;16.55;7.50;;;;;;;-2.59;100.00;103082.75;5073177;28;20051;-46
2024/01/28 02:47:30;;;;;;;13.07;6.90;;;;;;;-2.60;100.00;103070.69;5073100;28;20496;-48
2024/01/28 02:49:58;;;;;;;12.95;7.15;;;;;;;-2.60;100.00;103065.53;5072852;28;20545;-46
2024/01/28 02:52:26;;;;;;;16.63;7.82;;;;;;;-2.61;100.00;103066.38;5073157;28;20123;-47
2024/01/28 02:54:55;;;;;;;20.55;8.20;;;;;;;-2.61;100.00;103063.78;5071189;28;20068;-46
2024/01/28 02:57:23;;;;;;;15.82;7.90;;;;;;;-2.63;100.00;103052.59;5069964;28;20109;-46
2024/01/28 02:59:53;;;;;;;14.05;6.38;;;;;;;-2.63;100.00;103043.97;5071949;28;20613;-46
2024/01/28 03:02:21;;;;;;;15.95;7.60;;;;;;;-2.63;100.00;103041.38;5072951;28;20482;-46
2024/01/28 03:04:51;;;;;;;13.50;7.05;;;;;;;-2.57;100.00;103028.66;5072875;28;20080;-45
2024/01/28 03:07:20;;;;;;;17.10;7.13;;;;;;;-2.59;100.00;103036.38;5071253;28;20139;-51
2024/01/28 03:09:48;;;;;;;15.98;6.38;;;;;;;-2.58;100.00;103025.22;5072367;28;20382;-50
2024/01/28 03:12:16;;;;;;;14.63;6.75;;;;;;;-2.58;100.00;103021.75;5072216;28;20131;-51
2024/01/28 03:14:44;;;;;;;19.83;7.13;;;;;;;-2.59;100.00;103028.63;5071051;28;20041;-52
2024/01/28 03:17:14;;;;;;;14.13;6.50;;;;;;;-2.57;100.00;103018.38;5071743;28;20044;-50
2024/01/28 03:19:42;;;;;;;13.32;5.70;;;;;;;-2.59;100.00;103014.88;5069409;28;20522;-50
2024/01/28 03:22:10;;;;;;;12.40;6.35;;;;;;;-2.60;100.00;103015.72;5068993;28;20404;-49
2024/01/28 03:24:40;;;;;;;16.33;6.72;;;;;;;-2.62;100.00;103015.69;5069040;28;20040;-51
2024/01/28 03:27:08;;;;;;;16.60;6.97;;;;;;;-2.62;100.00;103015.69;5069589;28;20052;-52
2024/01/28 03:29:36;;;;;;;14.70;6.95;;;;;;;-2.64;100.00;103014.75;5067665;28;20062;-51
2024/01/28 03:32:06;;;;;;;18.40;6.63;;;;;;;-2.66;100.00;103012.97;5069371;28;20484;-49
2024/01/28 03:34:35;;;;;;;13.02;6.43;;;;;;;-2.68;100.00;103012.94;5068983;28;20048;-51
2024/01/28 03:37:04;;;;;;;13.77;6.20;;;;;;;-2.69;100.00;103007.75;5071196;28;20139;-50
2024/01/28 03:39:35;;;;;;;14.82;6.45;;;;;;;-2.72;100.00;103014.56;5072641;28;20358;-51
2024/01/28 03:42:04;;;;;;;15.93;6.80;;;;;;;-2.72;100.00;103022.28;5072009;28;20459;-54
2024/01/28 03:44:32;;;;;;;13.80;6.88;;;;;;;-2.74;100.00;103013.66;5072089;28;20392;-53
2024/01/28 03:47:00;;;;;;;17.30;6.57;;;;;;;-2.74;100.00;103020.50;5072656;28;20491;-50
2024/01/28 03:49:28;;;;;;;15.32;7.38;;;;;;;-2.78;100.00;103017.00;5072383;28;20443;-50
2024/01/28 03:51:58;;;;;;;17.45;6.53;;;;;;;-2.78;100.00;103024.72;5072248;28;20044;-50
2024/01/28 03:54:26;;;;;;;14.40;6.40;;;;;;;-2.79;100.00;103019.53;5069200;28;20143;-50
2024/01/28 03:56:54;;;;;;;16.15;6.40;;;;;;;-2.83;100.00;103018.59;5069620;28;20404;-50
2024/01/28 03:59:22;;;;;;;12.88;5.90;;;;;;;-2.84;100.00;103016.84;5072032;28;20049;-53
2024/01/28 04:01:50;;;;;;;16.55;6.65;;;;;;;-2.85;100.00;103009.97;5072006;28;20045;-51
2024/01/28 04:04:20;;;;;;;14.02;6.40;;;;;;;-2.87;100.00;103010.75;5069487;28;20052;-50
2024/01/28 04:06:51;;;;;;;14.07;6.53;;;;;;;-2.89;100.00;103009.00;5069041;28;20514;-51
2024/01/28 04:09:21;;;;;;;15.48;6.22;;;;;;;-2.91;100.00;103010.66;5069510;28;20080;-52
2024/01/28 04:11:49;;;;;;;16.13;6.43;;;;;;;-2.91;100.00;102999.50;5072220;28;20469;-52
2024/01/28 04:14:17;;;;;;;13.32;6.75;;;;;;;-2.90;100.00;103002.09;5069184;28;20052;-49
2024/01/28 04:16:45;;;;;;;19.20;6.95;;;;;;;-2.92;100.00;103006.34;5068502;28;20493;-53
2024/01/28 04:19:13;;;;;;;16.45;6.78;;;;;;;-2.94;100.00;102995.13;5070912;28;20044;-51
2024/01/28 04:21:42;;;;;;;19.13;7.30;;;;;;;-2.92;100.00;102996.06;5070119;28;20056;-50
2024/01/28 04:24:10;;;;;;;17.48;6.53;;;;;;;-2.92;100.00;102988.31;5070643;28;20105;-50
2024/01/28 04:26:39;;;;;;;19.10;7.18;;;;;;;-2.94;100.00;102984.81;5068727;28;20128;-52
2024/01/28 04:29:07;;;;;;;16.05;6.95;;;;;;;-2.94;100.00;102986.53;5069251;28;20079;-51
2024/01/28 04:31:41;;;;;;;15.35;6.65;;;;;;;-2.95;100.00;102989.94;5072335;28;20047;-50
2024/01/28 04:34:09;;;;;;;13.90;6.18;;;;;;;-2.97;100.00;102994.16;5075377;28;20106;-52
2024/01/28 04:36:38;;;;;;;12.32;6.25;;;;;;;-2.99;100.00;102983.84;5075837;28;20047;-50
2024/01/28 04:39:07;;;;;;;15.52;6.95;;;;;;;-3.01;100.00;102977.78;5075400;28;20052;-52
2024/01/28 04:41:35;;;;;;;13.05;6.53;;;;;;;-3.00;100.00;102970.91;5075284;28;20052;-51
2024/01/28 04:44:05;;;;;;;14.35;6.25;;;;;;;-3.01;100.00;102970.06;5072140;28;20496;-50
2024/01/28 04:46:34;;;;;;;13.02;6.43;;;;;;;-3.02;100.00;102972.59;5071952;28;20045;-50
2024/01/28 04:49:03;;;;;;;18.77;7.00;;;;;;;-3.05;100.00;102968.25;5075527;28;20044;-51
2024/01/28 04:51:31;;;;;;;16.92;6.78;;;;;;;-3.06;100.00;102967.34;5075418;28;20059;-50
2024/01/28 04:53:59;;;;;;;13.80;6.63;;;;;;;-3.08;100.00;102974.19;5075423;28;20530;-50
2024/01/28 04:56:28;;;;;;;13.65;7.07;;;;;;;-3.06;100.00;102957.06;5075288;28;20059;-51
2024/01/28 04:58:58;;;;;;;18.40;6.68;;;;;;;-3.07;100.00;102957.03;5073420;28;20062;-50
2024/01/28 05:01:28;;;;;;;16.48;6.30;;;;;;;-3.07;100.00;102954.44;5070458;28;20048;-53
2024/01/28 05:03:56;;;;;;;11.32;6.40;;;;;;;-3.07;100.00;102955.34;5071535;28;20143;-49
2024/01/28 05:06:30;;;;;;;17.85;7.22;;;;;;;-3.08;100.00;102943.28;5071607;28;20040;-49
2024/01/28 05:08:58;;;;;;;14.43;6.22;;;;;;;-3.10;100.00;102950.09;5073948;28;20048;-51
2024/01/28 05:11:27;;;;;;;14.93;7.43;;;;;;;-3.09;100.00;102950.97;5071859;28;20045;-53
2024/01/28 05:13:55;;;;;;;12.60;6.53;;;;;;;-3.11;100.00;102939.75;5069798;28;20107;-50
2024/01/28 05:16:28;;;;;;;17.10;7.35;;;;;;;-3.11;100.00;102934.59;5070896;28;20041;-46
2024/01/28 05:18:56;;;;;;;20.27;7.53;;;;;;;-3.11;100.00;102934.59;5073254;28;20123;-46
2024/01/28 05:21:25;;;;;;;14.13;7.03;;;;;;;-3.12;100.00;102931.16;5072546;28;20044;-47
2024/01/28 05:23:53;;;;;;;16.70;7.25;;;;;;;-3.13;100.00;102942.28;5071309;28;20508;-46
2024/01/28 05:26:21;;;;;;;14.93;7.20;;;;;;;-3.13;100.00;102938.84;5071233;28;20037;-47
2024/01/28 05:28:49;;;;;;;11.75;6.43;;;;;;;-3.12;100.00;102938.00;5074161;28;20051;-48
2024/01/28 05:31:17;;;;;;;15.55;6.63;;;;;;;-3.13;100.00;102944.00;5074151;28;20464;-46
2024/01/28 05:33:47;;;;;;;16.30;6.47;;;;;;;-3.14;100.00;102937.97;5074064;28;20046;-46
2024/01/28 05:36:16;;;;;;;14.00;6.60;;;;;;;-3.14;100.00;102935.41;5074159;28;20545;-46
2024/01/28 05:38:45;;;;;;;14.45;6.63;;;;;;;-3.15;100.00;102930.22;5074400;28;20044;-45
2024/01/28 05:41:14;;;;;;;12.63;5.95;;;;;;;-3.15;100.00;102930.22;5074051;28;20057;-46
2024/01/28 05:43:44;;;;;;;14.75;7.32;;;;;;;-3.16;100.00;102923.31;5074145;28;20389;-46
2024/01/28 05:46:15;;;;;;;14.65;6.38;;;;;;;-3.18;100.00;102918.13;5074476;28;20498;-45
2024/01/28 05:48:44;;;;;;;14.98;6.00;;;;;;;-3.17;100.00;102911.28;5071363;28;20048;-46
2024/01/28 05:51:13;;;;;;;13.43;6.20;;;;;;;-3.18;100.00;102919.84;5069481;28;20097;-46
2024/01/28 05:53:42;;;;;;;15.40;6.82;;;;;;;-3.17;100.00;102921.59;5073844;28;20074;-46
2024/01/28 05:56:10;;;;;;;13.98;6.75;;;;;;;-3.20;100.00;102919.81;5074255;28;20037;-46
2024/01/28 05:58:38;;;;;;;12.23;6.57;;;;;;;-3.19;100.00;102902.66;5074093;28;20075;-46
2024/01/28 06:01:09;;;;;;;17.55;7.13;;;;;;;-3.21;100.00;102902.63;5073916;28;20105;-45
2024/01/28 06:03:37;;;;;;;15.43;6.75;;;;;;;-3.21;100.00;102894.91;5074106;28;20076;-45
2024/01/28 06:06:07;;;;;;;12.98;6.53;;;;;;;-3.22;100.00;102893.16;5074186;28;20040;-45
2024/01/28 06:08:36;;;;;;;15.60;6.88;;;;;;;-3.21;100.00;102894.03;5074160;28;20048;-45
2024/01/28 06:11:05;;;;;;;13.98;6.45;;;;;;;-3.23;100.00;102876.84;5073599;28;20584;-46
2024/01/28 06:13:33;;;;;;;13.95;5.95;;;;;;;-3.24;100.00;102879.38;5074101;28;20052;-45
2024/01/28 06:16:01;;;;;;;14.55;7.10;;;;;;;-3.25;100.00;102878.50;5073737;28;20120;-45
2024/01/28 06:18:29;;;;;;;12.35;6.20;;;;;;;-3.27;100.00;102872.44;5073714;28;20123;-46
2024/01/28 06:20:58;;;;;;;13.15;5.97;;;;;;;-3.28;100.00;102868.13;5073473;28;20048;-48
2024/01/28 06:23:26;;;;;;;14.98;6.60;;;;;;;-3.28;100.00;102862.97;5073876;28;20427;-46
2024/01/28 06:25:55;;;;;;;17.20;6.80;;;;;;;-3.28;100.00;102862.97;5073495;28;20044;-45
2024/01/28 06:28:24;;;;;;;12.35;6.35;;;;;;;-3.28;100.00;102846.69;5073520;28;20521;-47
2024/01/28 06:30:52;;;;;;;14.85;6.85;;;;;;;-3.30;100.00;102844.06;5073580;28;20044;-45
2024/01/28 06:33:20;;;;;;;11.82;6.05;;;;;;;-3.30;100.00;102843.19;5073336;28;20487;-46
2024/01/28 06:35:48;;;;;;;10.65;5.32;;;;;;;-3.29;100.00;102852.66;5073157;28;20032;-44
2024/01/28 06:38:18;;;;;;;13.48;5.95;;;;;;;-3.30;100.00;102845.75;5072799;28;20090;-46
2024/01/28 06:40:46;;;;;;;18.23;6.90;;;;;;;-3.29;100.00;102844.94;5069910;28;20415;-45
2024/01/28 06:43:16;;;;;;;11.52;5.70;;;;;;;-3.30;100.00;102848.31;5069056;28;20211;-47
2024/01/28 06:45:46;;;;;;;10.63;6.07;;;;;;;-3.30;100.00;102849.22;5072832;28;20044;-45
2024/01/28 06:48:14;;;;;;;12.98;5.60;;;;;;;-3.32;100.00;102844.88;5073140;28;20044;-45
2024/01/28 06:50:43;;;;;;;13.75;6.07;;;;;;;-3.33;100.00;102841.41;5073013;28;20051;-45
2024/01/28 06:53:11;;;;;;;14.65;6.50;;;;;;;-3.35;100.00;102839.63;5072684;28;20072;-46
2024/01/28 06:55:39;;;;;;;16.17;6.50;;;;;;;-3.36;100.00;102828.47;5073339;28;20381;-47
2024/01/28 06:58:08;;;;;;;12.20;5.72;;;;;;;-3.36;100.00;102838.75;5073128;28;20047;-47
2024/01/28 07:00:37;;;;;;;15.38;5.82;;;;;;;-3.35;100.00;102844.75;5073126;28;20117;-47
2024/01/28 07:03:06;;;;;;;16.35;6.90;;;;;;;-3.33;100.00;102837.97;5073028;28;20094;-46
2024/01/28 07:05:34;;;;;;;12.05;6.13;;;;;;;-3.34;100.00;102842.25;5071444;28;20045;-46
2024/01/28 07:08:02;;;;;;;11.40;6.00;;;;;;;-3.33;100.00;102832.81;5072869;28;20044;-47
2024/01/28 07:10:33;;;;;;;14.55;5.70;;;;;;;-3.34;100.00;102831.97;5073037;28;20123;-46
2024/01/28 07:13:03;;;;;;;14.52;5.68;;;;;;;-3.34;100.00;102831.06;5072801;28;20388;-46
2024/01/28 07:15:32;;;;;;;17.52;6.25;;;;;;;-3.33;100.00;102841.41;5073216;28;20044;-45
2024/01/28 07:18:01;;;;;;;15.10;6.32;;;;;;;-3.34;100.00;102833.66;5072892;28;20054;-45
2024/01/28 07:20:30;;;;;;;13.20;5.90;;;;;;;-3.34;100.00;102843.94;5072395;28;20056;-45
2024/01/28 07:22:59;;;;;;;14.20;6.97;;;;;;;-3.34;100.00;102837.13;5072591;28;20044;-45
2024/01/28 07:25:27;;;;;;;16.48;6.15;;;;;;;-3.34;100.00;102838.78;5072582;28;20106;-46
2024/01/28 07:27:56;;;;;;;15.32;6.72;;;;;;;-3.33;100.00;102838.81;5072828;28;20492;-46
2024/01/28 07:30:24;;;;;;;13.30;5.90;;;;;;;-3.33;100.00;102837.97;5068486;28;20045;-46
2024/01/28 07:32:55;;;;;;;11.70;5.55;;;;;;;-3.32;100.00;102842.28;5069055;28;20045;-46
2024/01/28 07:35:25;;;;;;;12.82;5.07;;;;;;;-3.32;100.00;102845.72;5072503;28;20419;-46
2024/01/28 07:37:53;;;;;;;13.43;6.38;;;;;;;-3.31;100.00;102847.47;5072575;28;20041;-52
2024/01/28 07:40:21;;;;;;;14.98;5.90;;;;;;;-3.30;100.00;102848.31;5072622;28;20501;-45
2024/01/28 07:42:49;;;;;;;9.40;5.70;;;;;;;-3.29;100.00;102848.38;5072290;28;20060;-52
2024/01/28 07:45:19;;;;;;;11.77;5.53;;;;;;;-3.27;100.00;102844.13;5072260;28;20071;-46
2024/01/28 07:47:47;;;;;;;14.30;6.75;;;;;;;-3.25;100.00;102844.16;5071796;28;20049;-47
2024/01/28 07:50:16;;;;;;;12.32;5.72;;;;;;;-3.24;100.00;102844.19;5070653;28;20054;-54
2024/01/28 07:52:45;;;;;;;12.75;5.57;;;;;;;-3.19;100.00;102840.88;5070705;28;20058;-51
2024/01/28 07:55:14;;;;;;;10.63;5.88;;;;;;;-3.16;100.00;102833.22;5071848;28;20044;-53
2024/01/28 07:57:44;;;;;;;11.00;5.63;;;;;;;-3.03;100.00;102832.69;5072277;28;20491;-52
2024/01/28 08:00:14;;;;;;;13.63;6.50;;;;;;;-2.87;100.00;102838.19;5071868;28;20056;-53
2024/01/28 08:02:42;;;;;;;14.52;5.85;;;;;;;-2.63;100.00;102841.31;5068912;28;20110;-50
2024/01/28 08:05:10;;;;;;;15.68;6.68;;;;;;;-2.34;100.00;102846.22;5071954;28;20529;-53
2024/01/28 08:07:40;;;;;;;15.23;5.95;;;;;;;-2.17;100.00;102843.94;5074703;28;20480;-48
2024/01/28 08:10:10;;;;;;;14.93;6.43;;;;;;;-1.94;100.00;102848.69;5073672;28;20041;-50
2024/01/28 08:12:38;;;;;;;14.50;6.10;;;;;;;-1.64;100.00;102840.66;5073234;28;20776;-49
2024/01/28 08:15:07;;;;;;;14.57;6.25;;;;;;;-1.47;100.00;102843.53;5075799;28;20044;-49
2024/01/28 08:17:35;;;;;;;18.98;7.05;;;;;;;-1.22;100.00;102839.63;5075288;28;20044;-48
2024/01/28 08:20:04;;;;;;;14.80;6.20;;;;;;;-1.01;100.00;102835.63;5072627;28;20381;-48
2024/01/28 08:22:32;;;;;;;14.32;6.15;;;;;;;-0.79;100.00;102834.25;5074559;28;20452;-49
2024/01/28 08:25:01;;;;;;;12.93;5.50;;;;;;;-0.60;100.00;102827.63;5076144;28;20052;-49
2024/01/28 08:27:31;;;;;;;14.85;6.28;;;;;;;-0.23;100.00;102830.66;5076303;28;20118;-52
2024/01/28 08:29:59;;;;;;;10.95;5.22;;;;;;;0.11;100.00;102828.44;5075782;28;20449;-50
2024/01/28 08:32:27;;;;;;;13.00;5.38;;;;;;;0.44;100.00;102827.03;5073521;28;20040;-50
2024/01/28 08:34:55;;;;;;;13.07;5.20;;;;;;;0.68;100.00;102822.91;5071795;28;20103;-51
2024/01/28 08:37:23;;;;;;;11.57;5.07;;;;;;;0.84;100.00;102829.91;5072330;28;20454;-51
2024/01/28 08:39:52;;;;;;;11.02;4.32;;;;;;;1.11;100.00;102830.13;5071022;28;20089;-53
2024/01/28 08:42:21;;;;;;;13.90;4.85;;;;;;;1.13;100.00;102828.38;5074807;28;20117;-50
2024/01/28 08:44:51;;;;;;;12.05;4.88;;;;;;;1.21;100.00;102826.72;5069979;28;20044;-52
2024/01/28 08:47:19;;;;;;;12.52;4.53;;;;;;;1.38;100.00;102824.22;5071948;28;21176;-51
2024/01/28 08:49:48;;;;;;;10.88;4.78;;;;;;;1.39;100.00;102827.66;5074669;28;20139;-49
2024/01/28 08:52:21;;;;;;;13.50;4.70;;;;;;;1.20;100.00;102819.81;5075580;28;20110;-51
2024/01/28 08:54:50;;;;;;;9.15;4.60;;;;;;;1.11;100.00;102823.19;5074818;28;20048;-50
2024/01/28 08:57:18;;;;;;;10.15;5.00;;;;;;;1.23;100.00;102821.53;5071917;28;20039;-51
2024/01/28 08:59:46;;;;;;;10.63;4.50;;;;;;;1.38;100.00;102818.16;5073163;28;20048;-50
2024/01/28 09:02:16;;;;;;;12.82;4.30;;;;;;;1.42;100.00;102815.59;5072896;28;20511;-49
2024/01/28 09:04:47;;;;;;;9.52;4.38;;;;;;;1.46;100.00;102806.09;5071551;28;20056;-48
2024/01/28 09:07:15;;;;;;;11.70;4.63;;;;;;;1.54;100.00;102808.72;5074857;28;20131;-45
2024/01/28 09:09:43;;;;;;;11.88;4.53;;;;;;;1.50;100.00;102800.03;5075014;28;20044;-46
2024/01/28 09:12:12;;;;;;;11.95;4.60;;;;;;;1.48;100.00;102802.63;5074786;28;20062;-45
2024/01/28 09:14:40;;;;;;;14.13;4.28;;;;;;;1.61;100.00;102802.69;5074471;28;20036;-45
2024/01/28 09:17:08;;;;;;;9.85;4.63;;;;;;;1.56;100.00;102805.28;5075016;28;20068;-46
2024/01/28 09:19:37;;;;;;;10.68;4.28;;;;;;;1.70;100.00;102810.50;5074837;28;20504;-48
2024/01/28 09:22:06;;;;;;;9.82;4.63;;;;;;;1.73;100.00;102807.91;5075027;28;20198;-45
2024/01/28 09:24:35;;;;;;;13.68;4.40;;;;;;;1.75;100.00;102811.41;5072891;28;20865;-47
2024/01/28 09:27:03;;;;;;;15.05;4.65;;;;;;;1.80;100.00;102809.69;5071612;28;20040;-46
2024/01/28 09:29:33;;;;;;;8.85;4.20;;;;;;;1.93;100.00;102812.31;5074341;28;20048;-46
2024/01/28 09:32:02;;;;;;;11.65;4.90;;;;;;;2.03;100.00;102806.25;5075018;28;20048;-46
2024/01/28 09:34:30;;;;;;;10.93;4.30;;;;;;;2.17;100.00;102807.16;5074679;28;20098;-48
2024/01/28 09:36:59;;;;;;;10.65;4.28;;;;;;;2.28;100.00;102811.53;5075013;28;20064;-45
2024/01/28 09:39:29;;;;;;;9.82;4.20;;;;;;;2.37;100.00;102803.72;5074847;28;20055;-46
2024/01/28 09:42:08;;;;;;;10.95;4.80;;;;;;;2.53;100.00;102814.97;5074390;28;20131;-50
2024/01/28 09:44:37;;;;;;;9.63;4.07;;;;;;;2.63;100.00;102806.34;5074597;28;20040;-47
2024/01/28 09:47:14;;;;;;;11.15;4.28;;;;;;;2.81;100.00;102810.63;5073322;28;20048;-49
2024/01/28 09:49:44;;;;;;;13.10;4.10;;;;;;;2.93;100.00;102808.88;5074755;28;20123;-47
2024/01/28 09:52:14;;;;;;;9.98;3.97;;;;;;;3.10;100.00;102808.88;5074627;28;20407;-46
2024/01/28 09:54:44;;;;;;;10.18;3.55;;;;;;;3.35;100.00;102804.44;5074221;28;20063;-47
2024/01/28 09:57:13;;;;;;;8.05;3.72;;;;;;;3.60;100.00;102802.63;5073944;28;20503;-49
2024/01/28 09:59:41;;;;;;;14.93;4.20;;;;;;;3.80;100.00;102791.22;5068700;28;20133;-45
2024/01/28 10:02:10;;;;;;;11.32;4.13;;;;;;;3.95;100.00;102790.28;5071877;28;20114;-46
2024/01/28 10:04:40;;;;;;;10.68;3.85;;;;;;;4.19;100.00;102787.50;5073985;28;20468;-47
2024/01/28 10:07:11;;;;;;;8.32;3.55;;;;;;;4.21;100.00;102783.16;5072498;28;20427;-47
2024/01/28 10:09:41;;;;;;;9.88;2.97;;;;;;;4.43;100.00;102790.81;5073703;28;20097;-47
2024/01/28 10:12:10;;;;;;;10.02;3.40;;;;;;;4.63;100.00;102782.78;5072671;28;20101;-47
2024/01/28 10:14:38;;;;;;;10.32;3.78;;;;;;;4.89;100.00;102785.16;5069255;28;20058;-46
2024/01/28 10:17:07;;;;;;;9.02;3.42;;;;;;;5.04;100.00;102781.50;5072163;28;20222;-47
2024/01/28 10:19:35;;;;;;;10.00;3.75;;;;;;;5.31;100.00;102783.84;5073685;28;20488;-45
2024/01/28 10:22:06;;;;;;;10.07;3.10;;;;;;;5.62;100.00;102778.19;5070583;28;20483;-46
2024/01/28 10:24:43;;;;;;;6.72;3.13;;;;;;;5.70;100.00;102782.47;5071192;28;20048;-45
2024/01/28 10:27:11;;;;;;;11.25;3.83;;;;;;;5.87;100.00;102774.38;5072472;28;20098;-49
2024/01/28 10:29:43;;;;;;;9.32;3.42;;;;;;;5.98;100.00;102770.78;5071964;28;20044;-50
2024/01/28 10:32:11;;;;;;;8.60;3.33;;;;;;;5.95;100.00;102770.81;5070120;28;20045;-50
2024/01/28 10:34:39;;;;;;;9.85;3.33;;;;;;;5.81;100.00;102769.25;5070252;28;20048;-44
2024/01/28 10:37:12;;;;;;;9.75;3.60;;;;;;;5.53;100.00;102758.31;5073286;28;20508;-46
2024/01/28 10:39:40;;;;;;;8.00;3.60;;;;;;;5.52;100.00;102759.19;5073698;28;20041;-47
2024/01/28 10:42:20;;;;;;;9.07;3.40;;;;;;;5.39;100.00;102751.53;5073259;28;20055;-48
2024/01/28 10:44:52;;;;;;;8.88;3.30;;;;;;;5.22;100.00;102754.38;5073373;28;20465;-46
2024/01/28 10:47:22;;;;;;;8.87;3.10;;;;;;;5.16;100.00;102749.22;5073477;28;20132;-48
2024/01/28 10:49:54;;;;;;;7.85;3.10;;;;;;;5.05;100.00;102749.34;5073273;28;20106;-47
2024/01/28 10:52:25;;;;;;;11.05;3.30;;;;;;;5.11;100.00;102747.53;5071802;28;20063;-47
2024/01/28 10:54:54;;;;;;;7.00;3.28;;;;;;;5.08;100.00;102733.66;5069164;28;20469;-46
2024/01/28 10:57:25;;;;;;;11.10;3.35;;;;;;;5.11;100.00;102727.53;5070101;28;20053;-45
2024/01/28 10:59:55;;;;;;;11.15;2.97;;;;;;;5.11;100.00;102727.53;5073301;28;20051;-46
2024/01/28 11:02:23;;;;;;;8.02;2.90;;;;;;;5.22;100.00;102728.28;5073339;28;20476;-54
2024/01/28 11:04:52;;;;;;;12.25;3.38;;;;;;;5.40;100.00;102724.56;5069308;28;20048;-54
2024/01/28 11:07:21;;;;;;;8.25;3.28;;;;;;;5.56;100.00;102720.00;5069619;28;20044;-54
2024/01/28 11:09:51;;;;;;;11.38;3.25;;;;;;;5.55;100.00;102715.66;5069406;28;20091;-47
2024/01/28 11:12:20;;;;;;;8.60;2.92;;;;;;;5.67;100.00;102709.41;5070272;28;20450;-47
2024/01/28 11:14:52;;;;;;;7.88;3.10;;;;;;;5.57;100.00;102705.19;5073011;28;20428;-49
2024/01/28 11:17:33;;;;;;;7.72;3.13;;;;;;;5.61;100.00;102708.63;5072649;28;20046;-46
2024/01/28 11:20:09;;;;;;;9.68;3.33;;;;;;;5.57;100.00;102699.97;5069498;28;20032;-47